createdAt,value
2018-07-07T00:00:20.244Z,17.76
2018-07-07T00:03:23.507Z,17.64
2018-07-07T00:06:26.736Z,17.58
2018-07-07T00:09:29.990Z,17.46
2018-07-07T00:12:33.219Z,17.56
2018-07-07T00:15:36.476Z,17.37
2018-07-07T00:18:39.830Z,17.36
2018-07-07T00:21:43.055Z,17.44
2018-07-07T00:24:46.414Z,17.49
2018-07-07T00:27:50.301Z,17.53
2018-07-07T00:30:53.483Z,17.22
2018-07-07T00:33:56.706Z,17.37
2018-07-07T00:36:59.844Z,17.12
2018-07-07T00:40:03.383Z,16.98
2018-07-07T00:43:06.557Z,17.04
2018-07-07T00:46:09.745Z,17.06
2018-07-07T00:49:12.978Z,17.01
2018-07-07T00:52:16.158Z,17.00
2018-07-07T00:55:19.408Z,16.94
2018-07-07T00:58:22.566Z,16.81
2018-07-07T01:01:25.722Z,16.82
2018-07-07T01:04:28.909Z,16.73
2018-07-07T01:07:32.163Z,16.78
2018-07-07T01:10:35.396Z,16.54
2018-07-07T01:13:38.576Z,16.71
2018-07-07T01:16:41.729Z,16.54
2018-07-07T01:19:45.092Z,16.36
2018-07-07T01:22:48.302Z,16.46
2018-07-07T01:25:51.496Z,16.33
2018-07-07T01:28:54.817Z,16.28
2018-07-07T01:31:58.042Z,16.21
2018-07-07T01:35:01.211Z,16.19
2018-07-07T01:38:04.369Z,16.07
2018-07-07T01:41:07.688Z,16.06
2018-07-07T01:44:10.905Z,16.04
2018-07-07T01:47:14.058Z,16.03
2018-07-07T01:50:17.235Z,15.92
2018-07-07T01:53:20.407Z,16.00
2018-07-07T01:56:23.530Z,16.09
2018-07-07T01:59:26.690Z,15.85
2018-07-07T02:02:29.838Z,15.94
2018-07-07T02:05:33.123Z,15.78
2018-07-07T02:08:36.335Z,15.71
2018-07-07T02:11:39.466Z,15.61
2018-07-07T02:14:42.677Z,15.53
2018-07-07T02:17:45.958Z,15.62
2018-07-07T02:20:49.216Z,15.59
2018-07-07T02:23:52.374Z,15.43
2018-07-07T02:26:55.605Z,15.55
2018-07-07T02:29:58.734Z,15.29
2018-07-07T02:33:01.886Z,15.31
2018-07-07T02:36:05.040Z,15.32
2018-07-07T02:39:08.272Z,15.33
2018-07-07T02:42:11.580Z,15.32
2018-07-07T02:45:14.774Z,15.09
2018-07-07T02:48:17.967Z,15.06
2018-07-07T02:51:21.092Z,15.14
2018-07-07T02:54:24.231Z,15.19
2018-07-07T02:57:27.388Z,14.98
2018-07-07T03:00:30.609Z,14.78
2018-07-07T03:03:33.760Z,15.04
2018-07-07T03:06:36.987Z,15.04
2018-07-07T03:09:40.105Z,14.99
2018-07-07T03:12:43.250Z,15.00
2018-07-07T03:15:46.483Z,15.06
2018-07-07T03:18:49.634Z,15.16
2018-07-07T03:21:52.809Z,15.03
2018-07-07T03:24:55.974Z,15.12
2018-07-07T03:27:59.172Z,14.97
2018-07-07T03:31:02.332Z,14.99
2018-07-07T03:34:05.620Z,15.02
2018-07-07T03:37:08.746Z,15.02
2018-07-07T03:40:11.890Z,15.02
2018-07-07T03:43:15.034Z,15.06
2018-07-07T03:46:18.247Z,14.83
2018-07-07T03:49:21.502Z,14.89
2018-07-07T03:52:24.731Z,14.85
2018-07-07T03:55:27.944Z,14.83
2018-07-07T03:58:31.130Z,14.79
2018-07-07T04:01:34.280Z,14.85
2018-07-07T04:04:39.309Z,14.69
2018-07-07T04:07:42.491Z,14.78
2018-07-07T04:10:45.694Z,14.69
2018-07-07T04:13:48.838Z,14.64
2018-07-07T04:16:52.026Z,14.74
2018-07-07T04:19:55.181Z,15.00
2018-07-07T04:22:58.370Z,14.97
2018-07-07T04:26:01.822Z,14.93
2018-07-07T04:29:04.996Z,14.88
2018-07-07T04:32:08.125Z,14.94
2018-07-07T04:35:11.353Z,14.95
2018-07-07T04:38:14.502Z,14.83
2018-07-07T04:41:17.722Z,14.87
2018-07-07T04:44:20.871Z,14.99
2018-07-07T04:47:24.032Z,14.83
2018-07-07T04:50:27.230Z,14.73
2018-07-07T04:53:30.418Z,14.57
2018-07-07T04:56:33.646Z,14.63
2018-07-07T04:59:36.826Z,14.77
2018-07-07T05:02:40.102Z,14.73
2018-07-07T05:05:43.283Z,14.97
2018-07-07T05:08:46.541Z,14.80
2018-07-07T05:11:49.731Z,14.80
2018-07-07T05:14:52.941Z,14.98
2018-07-07T05:17:56.098Z,15.03
2018-07-07T05:20:59.282Z,14.72
2018-07-07T05:24:02.517Z,14.58
2018-07-07T05:27:05.718Z,14.78
2018-07-07T05:30:08.873Z,14.95
2018-07-07T05:33:12.089Z,14.83
2018-07-07T05:36:15.253Z,15.04
2018-07-07T05:39:18.429Z,15.04
2018-07-07T05:42:21.581Z,15.01
2018-07-07T05:45:40.568Z,14.95
2018-07-07T05:48:43.954Z,14.87
2018-07-07T05:51:47.151Z,14.99
2018-07-07T05:54:50.373Z,15.03
2018-07-07T05:57:53.595Z,14.81
2018-07-07T06:00:56.832Z,14.92
2018-07-07T06:04:00.030Z,14.80
2018-07-07T06:07:03.304Z,15.12
2018-07-07T06:10:06.795Z,15.02
2018-07-07T06:13:10.016Z,14.86
2018-07-07T06:16:13.265Z,14.97
2018-07-07T06:19:16.474Z,15.12
2018-07-07T06:22:19.677Z,15.22
2018-07-07T06:25:22.856Z,15.33
2018-07-07T06:28:37.217Z,15.43
2018-07-07T06:31:40.453Z,15.45
2018-07-07T06:34:43.737Z,15.45
2018-07-07T06:37:47.042Z,15.62
2018-07-07T06:40:50.353Z,15.62
2018-07-07T06:43:53.652Z,15.69
2018-07-07T06:46:56.908Z,15.71
2018-07-07T06:50:00.127Z,15.89
2018-07-07T06:53:03.401Z,15.92
2018-07-07T06:56:06.761Z,15.97
2018-07-07T06:59:10.007Z,16.16
2018-07-07T07:02:13.256Z,16.32
2018-07-07T07:05:16.463Z,16.35
2018-07-07T07:08:19.650Z,16.48
2018-07-07T07:11:22.861Z,16.64
2018-07-07T07:14:26.169Z,16.84
2018-07-07T07:17:29.390Z,16.90
2018-07-07T07:20:32.663Z,17.04
2018-07-07T07:23:35.868Z,17.14
2018-07-07T07:26:39.252Z,17.09
2018-07-07T07:29:42.498Z,17.09
2018-07-07T07:32:45.762Z,17.20
2018-07-07T07:35:49.051Z,17.28
2018-07-07T07:38:52.403Z,17.30
2018-07-07T07:41:55.628Z,17.34
2018-07-07T07:44:58.855Z,17.38
2018-07-07T07:48:02.090Z,17.33
2018-07-07T07:51:05.308Z,17.43
2018-07-07T07:54:08.548Z,17.57
2018-07-07T07:57:11.825Z,17.68
2018-07-07T08:00:15.401Z,17.90
2018-07-07T08:03:18.742Z,17.91
2018-07-07T08:06:22.578Z,17.93
2018-07-07T08:09:25.831Z,17.95
2018-07-07T08:12:29.023Z,18.09
2018-07-07T08:15:32.348Z,18.17
2018-07-07T08:18:35.818Z,18.34
2018-07-07T08:21:40.206Z,18.35
2018-07-07T08:24:44.493Z,18.55
2018-07-07T08:27:48.463Z,18.72
2018-07-07T08:30:52.581Z,18.90
2018-07-07T08:33:56.871Z,19.25
2018-07-07T08:37:00.815Z,19.32
2018-07-07T08:40:05.428Z,19.40
2018-07-07T08:43:13.102Z,19.48
2018-07-07T08:46:17.697Z,19.34
2018-07-07T08:49:21.515Z,19.53
2018-07-07T08:52:25.109Z,19.38
2018-07-07T08:55:28.424Z,19.36
2018-07-07T08:58:32.254Z,19.58
2018-07-07T09:01:36.686Z,19.57
2018-07-07T09:04:41.371Z,19.77
2018-07-07T09:07:45.010Z,19.84
2018-07-07T09:10:48.720Z,20.03
2018-07-07T09:13:52.476Z,20.18
2018-07-07T09:16:57.145Z,20.25
2018-07-07T09:20:00.504Z,20.39
2018-07-07T09:23:04.652Z,20.77
2018-07-07T09:26:09.712Z,20.91
2018-07-07T09:29:13.442Z,21.10
2018-07-07T09:32:17.178Z,21.17
2018-07-07T09:35:21.165Z,21.35
2018-07-07T09:38:25.086Z,21.49
2018-07-07T09:41:29.880Z,21.37
2018-07-07T09:44:34.183Z,21.77
2018-07-07T09:47:38.614Z,21.77
2018-07-07T09:50:42.151Z,21.52
2018-07-07T09:53:47.021Z,21.54
2018-07-07T09:56:51.455Z,21.53
2018-07-07T09:59:54.973Z,21.56
2018-07-07T10:02:59.968Z,21.52
2018-07-07T10:06:04.648Z,21.64
2018-07-07T10:09:08.574Z,21.94
2018-07-07T10:12:12.716Z,22.30
2018-07-07T10:15:17.084Z,22.51
2018-07-07T10:18:21.349Z,22.71
2018-07-07T10:21:25.402Z,22.69
2018-07-07T10:24:29.453Z,22.98
2018-07-07T10:27:33.116Z,22.97
2018-07-07T10:30:36.686Z,23.09
2018-07-07T10:33:40.218Z,23.24
2018-07-07T10:36:44.430Z,23.33
2018-07-07T10:39:47.747Z,23.53
2018-07-07T10:42:51.264Z,23.46
2018-07-07T10:45:54.825Z,22.88
2018-07-07T10:48:58.189Z,23.05
2018-07-07T10:52:01.461Z,23.38
2018-07-07T10:55:05.063Z,23.62
2018-07-07T10:58:08.414Z,23.94
2018-07-07T11:01:11.840Z,23.59
2018-07-07T11:04:15.153Z,23.66
2018-07-07T11:07:18.472Z,23.64
2018-07-07T11:10:21.807Z,23.56
2018-07-07T11:13:25.033Z,23.70
2018-07-07T11:16:29.552Z,23.91
2018-07-07T11:19:32.875Z,24.23
2018-07-07T11:22:36.254Z,24.14
2018-07-07T11:25:39.813Z,24.11
2018-07-07T11:28:43.028Z,24.32
2018-07-07T11:31:46.302Z,24.69
2018-07-07T11:34:49.567Z,25.13
2018-07-07T11:37:52.985Z,25.32
2018-07-07T11:40:56.320Z,25.68
2018-07-07T11:43:59.686Z,25.77
2018-07-07T11:47:02.921Z,25.82
2018-07-07T11:50:06.275Z,25.47
2018-07-07T11:53:09.463Z,25.63
2018-07-07T11:56:12.839Z,25.40
2018-07-07T11:59:16.175Z,25.38
2018-07-07T12:02:19.493Z,24.37
2018-07-07T12:05:22.731Z,24.09
2018-07-07T12:08:26.177Z,24.46
2018-07-07T12:11:29.880Z,24.73
2018-07-07T12:14:33.459Z,24.97
2018-07-07T12:17:37.189Z,25.06
2018-07-07T12:20:40.908Z,25.02
2018-07-07T12:23:44.538Z,24.96
2018-07-07T12:26:49.135Z,25.62
2018-07-07T12:29:53.129Z,25.78
2018-07-07T12:32:56.660Z,25.93
2018-07-07T12:36:00.372Z,25.66
2018-07-07T12:39:05.523Z,26.19
2018-07-07T12:42:09.052Z,26.46
2018-07-07T12:45:12.465Z,26.49
2018-07-07T12:48:15.954Z,26.62
2018-07-07T12:51:20.040Z,26.80
2018-07-07T12:54:25.326Z,27.10
2018-07-07T12:57:28.981Z,27.22
2018-07-07T13:00:32.380Z,26.89
2018-07-07T13:03:36.943Z,27.08
2018-07-07T13:06:41.275Z,27.30
2018-07-07T13:09:44.898Z,27.46
2018-07-07T13:12:48.293Z,27.27
2018-07-07T13:15:52.638Z,27.59
2018-07-07T13:18:57.144Z,27.71
2018-07-07T13:22:01.536Z,27.43
2018-07-07T13:25:07.941Z,26.75
2018-07-07T13:28:11.540Z,27.15
2018-07-07T13:31:16.025Z,27.17
2018-07-07T13:34:19.466Z,27.43
2018-07-07T13:37:23.333Z,27.73
2018-07-07T13:40:26.889Z,27.93
2018-07-07T13:43:30.531Z,28.06
2018-07-07T13:46:33.880Z,28.08
2018-07-07T13:49:41.237Z,27.93
2018-07-07T13:52:44.740Z,27.99
2018-07-07T13:55:49.053Z,27.72
2018-07-07T13:58:52.715Z,28.09
2018-07-07T14:01:56.829Z,27.89
2018-07-07T14:05:00.364Z,27.95
2018-07-07T14:08:03.768Z,27.75
2018-07-07T14:11:07.897Z,27.87
2018-07-07T14:14:11.368Z,28.25
2018-07-07T14:17:16.656Z,28.24
2018-07-07T14:20:20.256Z,27.89
2018-07-07T14:23:25.196Z,27.63
2018-07-07T14:26:28.795Z,27.61
2018-07-07T14:29:32.203Z,27.55
2018-07-07T14:32:35.841Z,27.43
2018-07-07T14:35:39.379Z,27.36
2018-07-07T14:38:42.678Z,26.98
2018-07-07T14:41:48.891Z,26.99
2018-07-07T14:44:52.300Z,27.04
2018-07-07T14:47:57.558Z,26.84
2018-07-07T14:51:01.017Z,27.22
2018-07-07T14:54:04.462Z,26.91
2018-07-07T14:57:08.060Z,27.13
2018-07-07T15:00:11.456Z,26.95
2018-07-07T15:03:14.759Z,27.09
2018-07-07T15:06:18.064Z,27.09
2018-07-07T15:09:21.469Z,26.94
2018-07-07T15:12:24.797Z,26.99
2018-07-07T15:15:28.613Z,27.11
2018-07-07T15:18:32.933Z,26.30
2018-07-07T15:21:36.381Z,26.58
2018-07-07T15:24:39.732Z,26.60
2018-07-07T15:27:43.234Z,26.57
2018-07-07T15:30:46.722Z,26.76
2018-07-07T15:33:50.138Z,26.68
2018-07-07T15:36:53.619Z,26.62
2018-07-07T15:39:57.021Z,26.82
2018-07-07T15:43:00.288Z,27.07
2018-07-07T15:46:05.056Z,27.24
2018-07-07T15:49:09.460Z,27.26
2018-07-07T15:52:13.481Z,27.12
2018-07-07T15:55:18.632Z,27.17
2018-07-07T15:58:22.350Z,26.94
2018-07-07T16:01:26.815Z,26.90
2018-07-07T16:04:30.160Z,27.01
2018-07-07T16:07:33.759Z,26.86
2018-07-07T16:10:38.179Z,26.99
2018-07-07T16:13:42.557Z,26.68
2018-07-07T16:16:48.037Z,26.53
2018-07-07T16:19:51.629Z,26.28
2018-07-07T16:22:55.141Z,26.39
2018-07-07T16:25:59.832Z,26.37
2018-07-07T16:29:03.335Z,26.41
2018-07-07T16:32:06.823Z,26.21
2018-07-07T16:35:10.076Z,26.31
2018-07-07T16:38:13.721Z,26.31
2018-07-07T16:41:17.092Z,26.27
2018-07-07T16:44:20.776Z,26.06
2018-07-07T16:47:24.288Z,26.11
2018-07-07T16:50:27.934Z,26.28
2018-07-07T16:53:31.920Z,26.17
2018-07-07T16:56:35.649Z,26.12
2018-07-07T16:59:39.166Z,25.90
2018-07-07T17:02:42.664Z,25.66
2018-07-07T17:05:46.097Z,25.73
2018-07-07T17:08:49.618Z,25.56
2018-07-07T17:11:53.359Z,25.45
2018-07-07T17:14:56.982Z,25.49
2018-07-07T17:18:01.338Z,25.48
2018-07-07T17:21:04.793Z,25.46
2018-07-07T17:24:08.283Z,25.50
2018-07-07T17:27:12.425Z,25.53
2018-07-07T17:30:15.971Z,25.49
2018-07-07T17:33:19.541Z,25.47
2018-07-07T17:36:24.184Z,25.21
2018-07-07T17:39:28.528Z,25.30
2018-07-07T17:42:32.060Z,25.40
2018-07-07T17:45:35.804Z,25.34
2018-07-07T17:48:39.624Z,25.21
2018-07-07T17:51:44.479Z,25.24
2018-07-07T17:54:48.292Z,25.19
2018-07-07T17:57:54.215Z,25.16
2018-07-07T18:01:01.599Z,25.17
2018-07-07T18:04:07.562Z,24.88
2018-07-07T18:07:12.515Z,24.99
2018-07-07T18:10:16.642Z,24.85
2018-07-07T18:13:21.244Z,24.89
2018-07-07T18:16:24.616Z,24.84
2018-07-07T18:19:28.183Z,24.81
2018-07-07T18:22:31.966Z,24.81
2018-07-07T18:25:35.971Z,24.70
2018-07-07T18:28:39.389Z,24.69
2018-07-07T18:31:43.043Z,24.65
2018-07-07T18:34:46.535Z,24.63
2018-07-07T18:37:50.216Z,24.58
2018-07-07T18:40:53.783Z,24.59
2018-07-07T18:43:57.275Z,24.53
2018-07-07T18:47:00.969Z,24.53
2018-07-07T18:50:04.501Z,24.45
2018-07-07T18:53:09.069Z,24.44
2018-07-07T18:56:12.624Z,24.36
2018-07-07T18:59:16.240Z,24.12
2018-07-07T19:02:19.843Z,24.21
2018-07-07T19:05:23.798Z,24.04
2018-07-07T19:08:27.469Z,24.14
2018-07-07T19:11:31.568Z,24.13
2018-07-07T19:14:35.174Z,24.10
2018-07-07T19:17:38.688Z,23.96
2018-07-07T19:20:47.353Z,23.96
2018-07-07T19:23:56.266Z,23.90
2018-07-07T19:27:03.522Z,23.70
2018-07-07T19:30:07.207Z,23.55
2018-07-07T19:33:16.206Z,23.50
2018-07-07T19:36:25.071Z,23.49
2018-07-07T19:39:28.794Z,23.45
2018-07-07T19:42:32.346Z,23.36
2018-07-07T19:45:35.918Z,23.31
2018-07-07T19:48:39.606Z,23.18
2018-07-07T19:51:43.195Z,23.21
2018-07-07T19:54:46.850Z,22.91
2018-07-07T19:57:56.185Z,22.97
2018-07-07T20:00:59.600Z,22.98
2018-07-07T20:04:03.769Z,22.84
2018-07-07T20:07:07.220Z,22.90
2018-07-07T20:10:10.784Z,22.83
2018-07-07T20:13:14.276Z,22.69
2018-07-07T20:16:20.965Z,22.72
2018-07-07T20:19:25.845Z,22.47
2018-07-07T20:22:29.544Z,22.59
2018-07-07T20:25:33.223Z,22.55
2018-07-07T20:28:41.866Z,22.33
2018-07-07T20:31:53.734Z,22.32
2018-07-07T20:34:57.092Z,22.28
2018-07-07T20:38:00.535Z,22.16
2018-07-07T20:41:03.956Z,22.08
2018-07-07T20:44:07.387Z,22.19
2018-07-07T20:47:10.828Z,21.95
2018-07-07T20:50:14.248Z,21.86
2018-07-07T20:53:17.958Z,21.79
2018-07-07T20:56:21.516Z,21.63
2018-07-07T20:59:25.008Z,21.65
2018-07-07T21:02:28.626Z,21.53
2018-07-07T21:05:32.142Z,21.51
2018-07-07T21:08:35.837Z,21.47
2018-07-07T21:11:39.350Z,21.33
2018-07-07T21:14:42.917Z,21.19
2018-07-07T21:17:46.515Z,21.31
2018-07-07T21:20:49.973Z,21.22
2018-07-07T21:23:53.525Z,21.19
2018-07-07T21:26:57.034Z,21.11
2018-07-07T21:30:00.483Z,20.89
2018-07-07T21:33:03.838Z,21.03
2018-07-07T21:36:07.352Z,20.93
2018-07-07T21:39:10.793Z,20.89
2018-07-07T21:42:14.373Z,20.74
2018-07-07T21:45:17.743Z,20.75
2018-07-07T21:48:21.112Z,20.68
2018-07-07T21:51:24.385Z,20.57
2018-07-07T21:54:27.781Z,20.63
2018-07-07T21:57:36.420Z,20.42
2018-07-07T22:01:26.867Z,20.43
2018-07-07T22:04:35.987Z,20.43
2018-07-07T22:07:39.494Z,20.39
2018-07-07T22:10:42.801Z,20.49
2018-07-07T22:13:46.050Z,20.47
2018-07-07T22:16:49.431Z,20.44
2018-07-07T22:19:52.708Z,20.33
2018-07-07T22:22:56.041Z,20.33
2018-07-07T22:25:59.363Z,20.15
2018-07-07T22:29:03.041Z,20.12
2018-07-07T22:32:10.604Z,20.02
2018-07-07T22:35:19.839Z,20.09
2018-07-07T22:38:29.172Z,20.01
2018-07-07T22:41:44.241Z,19.81
2018-07-07T22:44:48.568Z,19.80
2018-07-07T22:47:51.909Z,19.71
2018-07-07T22:50:55.419Z,19.63
2018-07-07T22:53:58.949Z,19.68
2018-07-07T22:57:02.184Z,19.77
2018-07-07T23:00:05.704Z,19.76
2018-07-07T23:03:08.990Z,19.74
2018-07-07T23:06:12.271Z,19.54
2018-07-07T23:09:17.113Z,19.41
2018-07-07T23:12:20.338Z,19.47
2018-07-07T23:15:23.655Z,19.33
2018-07-07T23:18:26.893Z,19.26
2018-07-07T23:21:31.243Z,19.33
2018-07-07T23:24:34.551Z,19.27
2018-07-07T23:27:37.806Z,19.16
2018-07-07T23:30:41.035Z,19.20
2018-07-07T23:33:44.395Z,19.16
2018-07-07T23:36:47.789Z,19.04
2018-07-07T23:39:51.177Z,19.04
2018-07-07T23:42:54.458Z,18.93
2018-07-07T23:45:57.691Z,18.97
2018-07-07T23:49:00.969Z,18.96
2018-07-07T23:52:04.273Z,19.10
2018-07-07T23:55:07.796Z,18.91
2018-07-07T23:58:11.175Z,18.82
